Forside
METAR-TAF:

METAR-TAF

Lufthavne :

Cedar Rapids, Iowa, USA

Breddekreds: 41-53-04N, længdekreds: 091-42-38W, højde: 263 m

Aktuelle vejr

Denne rapport blev lavet for 38 minutter siden, kl. 17:52 UTC
Vind 5 kt fra nordvest
Temperatur 25°C
Fugtighed 41%
Tryk 1020 hPa
Sigt: 16.1 km
Brudte skyer i en højde af 5500 ft
Brudte skyer i en højde af 7000 ft

METAR: KCID 031752Z 32005KT 10SM BKN055 BKN070 25/11 A3011 RMK AO2 SLP194 T02500111 10267 20133 58007 $

Tid: 13:30 (18:30 UTC)

Vejrudsigter

Denne rapport blev lavet for 56 minutter siden, kl. 17:34 UTC
Foreløbig gælder fra 03 på 18 UTC til 04 på 18 UTC
Vind 3 kt fra varierende retninger
Sigt: 10 km
Nogle få skyer i en højde af 6000 ft

TAF: KCID 031734Z 0318/0418 VRB03KT P6SM FEW060

Vejrobservationer og prognoser fra mere end 4000 lufthavne (METAR og TAF).

De gule og røde prikker repræsenterer de meteorologiske stationer.

Flyt musen over at se navnet på stationen.

Så klik over at se vejr observationer og prognoser.

At skifte det kort: Klik på de grønne knapper med et sort kors for at zoome ind; på den grønne knap med en bindestreg for at zoome ud; eller på de grønne pile for tilstødende kort.


METAR-TAF: